sensor_id;sensor_type;location;lat;lon;timestamp;pressure;altitude;pressure_sealevel;temperature;humidity
71974;BME280;59840;52.122;5.404;2022-07-10T00:01:45;102907.56;;;14.07;72.75
71974;BME280;59840;52.122;5.404;2022-07-10T00:04:12;102890.44;;;14.03;72.95
71974;BME280;59840;52.122;5.404;2022-07-10T00:06:38;102889.03;;;14.01;73.28
71974;BME280;59840;52.122;5.404;2022-07-10T00:09:07;102889.41;;;14.04;73.52
71974;BME280;59840;52.122;5.404;2022-07-10T00:11:34;102891.69;;;14.01;73.94
71974;BME280;59840;52.122;5.404;2022-07-10T00:14:00;102893.97;;;13.97;74.47
71974;BME280;59840;52.122;5.404;2022-07-10T00:16:27;102894.97;;;13.96;73.90
71974;BME280;59840;52.122;5.404;2022-07-10T00:18:53;102893.78;;;13.92;73.95
71974;BME280;59840;52.122;5.404;2022-07-10T00:21:20;102892.16;;;13.91;74.31
71974;BME280;59840;52.122;5.404;2022-07-10T00:23:47;102889.34;;;13.86;74.71
71974;BME280;59840;52.122;5.404;2022-07-10T00:26:14;102880.84;;;13.78;75.33
71974;BME280;59840;52.122;5.404;2022-07-10T00:28:40;102886.63;;;13.68;76.11
71974;BME280;59840;52.122;5.404;2022-07-10T00:31:07;102876.22;;;13.66;76.15
71974;BME280;59840;52.122;5.404;2022-07-10T00:33:37;102885.63;;;13.62;75.87
71974;BME280;59840;52.122;5.404;2022-07-10T00:36:04;102885.63;;;13.62;75.96
71974;BME280;59840;52.122;5.404;2022-07-10T00:38:31;102883.81;;;13.63;76.03
71974;BME280;59840;52.122;5.404;2022-07-10T00:40:58;102882.59;;;13.59;76.21
71974;BME280;59840;52.122;5.404;2022-07-10T00:43:24;102881.41;;;13.55;76.24
71974;BME280;59840;52.122;5.404;2022-07-10T00:45:51;102879.03;;;13.47;76.56
71974;BME280;59840;52.122;5.404;2022-07-10T00:48:18;102876.78;;;13.44;76.53
71974;BME280;59840;52.122;5.404;2022-07-10T00:50:45;102879.66;;;13.42;77.02
71974;BME280;59840;52.122;5.404;2022-07-10T00:53:13;102879.50;;;13.30;77.07
71974;BME280;59840;52.122;5.404;2022-07-10T00:55:40;102876.25;;;13.28;77.57
71974;BME280;59840;52.122;5.404;2022-07-10T00:58:08;102876.25;;;13.28;77.75
71974;BME280;59840;52.122;5.404;2022-07-10T01:00:36;102871.59;;;13.24;77.99
71974;BME280;59840;52.122;5.404;2022-07-10T01:03:04;102874.25;;;13.24;77.99
71974;BME280;59840;52.122;5.404;2022-07-10T01:05:31;102869.75;;;13.24;77.54
71974;BME280;59840;52.122;5.404;2022-07-10T01:07:57;102863.44;;;13.25;78.03
71974;BME280;59840;52.122;5.404;2022-07-10T01:10:24;102868.31;;;13.28;77.85
71974;BME280;59840;52.122;5.404;2022-07-10T01:12:51;102863.63;;;13.24;77.80
71974;BME280;59840;52.122;5.404;2022-07-10T01:15:18;102859.34;;;13.23;77.90
71974;BME280;59840;52.122;5.404;2022-07-10T01:17:45;102863.03;;;13.22;77.96
71974;BME280;59840;52.122;5.404;2022-07-10T01:20:11;102857.13;;;13.20;78.05
71974;BME280;59840;52.122;5.404;2022-07-10T01:22:38;102857.75;;;13.15;78.07
71974;BME280;59840;52.122;5.404;2022-07-10T01:25:05;102861.66;;;13.13;78.30
71974;BME280;59840;52.122;5.404;2022-07-10T01:27:32;102855.75;;;13.04;78.50
71974;BME280;59840;52.122;5.404;2022-07-10T01:29:59;102854.34;;;13.01;78.40
71974;BME280;59840;52.122;5.404;2022-07-10T01:32:25;102844.78;;;13.00;78.38
71974;BME280;59840;52.122;5.404;2022-07-10T01:34:52;102843.97;;;13.00;78.99
71974;BME280;59840;52.122;5.404;2022-07-10T01:37:19;102844.38;;;12.97;78.59
71974;BME280;59840;52.122;5.404;2022-07-10T01:39:45;102848.06;;;12.96;78.78
71974;BME280;59840;52.122;5.404;2022-07-10T01:42:12;102852.13;;;12.92;78.90
71974;BME280;59840;52.122;5.404;2022-07-10T01:44:38;102847.69;;;12.86;79.37
71974;BME280;59840;52.122;5.404;2022-07-10T01:47:05;102840.59;;;12.80;79.23
71974;BME280;59840;52.122;5.404;2022-07-10T01:49:31;102843.66;;;12.77;79.50
71974;BME280;59840;52.122;5.404;2022-07-10T01:51:59;102852.22;;;12.79;79.56
71974;BME280;59840;52.122;5.404;2022-07-10T01:54:26;102847.69;;;12.86;79.54
71974;BME280;59840;52.122;5.404;2022-07-10T01:56:52;102841.97;;;12.89;79.46
71974;BME280;59840;52.122;5.404;2022-07-10T01:59:19;102843.56;;;12.96;79.29
71974;BME280;59840;52.122;5.404;2022-07-10T02:01:45;102834.97;;;13.01;79.14
71974;BME280;59840;52.122;5.404;2022-07-10T02:04:12;102829.88;;;13.06;79.36
71974;BME280;59840;52.122;5.404;2022-07-10T02:06:57;102830.66;;;13.13;79.01
71974;BME280;59840;52.122;5.404;2022-07-10T02:09:23;102831.25;;;13.15;78.92
71974;BME280;59840;52.122;5.404;2022-07-10T02:11:50;102837.97;;;13.18;78.98
71974;BME280;59840;52.122;5.404;2022-07-10T02:14:17;102839.19;;;13.22;79.07
71974;BME280;59840;52.122;5.404;2022-07-10T02:16:43;102831.00;;;13.23;79.02
71974;BME280;59840;52.122;5.404;2022-07-10T02:19:11;102823.88;;;13.24;78.87
71974;BME280;59840;52.122;5.404;2022-07-10T02:21:37;102819.81;;;13.21;78.97
71974;BME280;59840;52.122;5.404;2022-07-10T02:24:04;102816.56;;;13.19;79.05
71974;BME280;59840;52.122;5.404;2022-07-10T02:26:31;102817.38;;;13.20;79.16
71974;BME280;59840;52.122;5.404;2022-07-10T02:28:57;102821.44;;;13.22;78.97
71974;BME280;59840;52.122;5.404;2022-07-10T02:31:23;102821.00;;;13.25;78.96
71974;BME280;59840;52.122;5.404;2022-07-10T02:33:50;102824.25;;;13.27;79.04
71974;BME280;59840;52.122;5.404;2022-07-10T02:36:17;102815.28;;;13.28;78.83
71974;BME280;59840;52.122;5.404;2022-07-10T02:38:43;102819.56;;;13.29;78.99
71974;BME280;59840;52.122;5.404;2022-07-10T02:41:10;102814.44;;;13.34;78.89
71974;BME280;59840;52.122;5.404;2022-07-10T02:43:36;102821.97;;;13.37;78.89
71974;BME280;59840;52.122;5.404;2022-07-10T02:46:03;102822.56;;;13.39;79.11
71974;BME280;59840;52.122;5.404;2022-07-10T02:48:30;102823.75;;;13.44;78.89
71974;BME280;59840;52.122;5.404;2022-07-10T02:50:56;102804.97;;;13.45;78.95
71974;BME280;59840;52.122;5.404;2022-07-10T02:53:22;102801.31;;;13.46;78.96
71974;BME280;59840;52.122;5.404;2022-07-10T02:55:49;102812.34;;;13.43;78.98
71974;BME280;59840;52.122;5.404;2022-07-10T02:58:16;102813.16;;;13.44;79.21
71974;BME280;59840;52.122;5.404;2022-07-10T03:00:43;102807.03;;;13.43;79.02
71974;BME280;59840;52.122;5.404;2022-07-10T03:03:10;102816.84;;;13.43;79.06
71974;BME280;59840;52.122;5.404;2022-07-10T03:05:37;102809.47;;;13.45;78.92
71974;BME280;59840;52.122;5.404;2022-07-10T03:08:04;102804.56;;;13.48;78.98
71974;BME280;59840;52.122;5.404;2022-07-10T03:10:30;102811.28;;;13.51;78.81
71974;BME280;59840;52.122;5.404;2022-07-10T03:12:57;102811.84;;;13.53;79.07
71974;BME280;59840;52.122;5.404;2022-07-10T03:15:23;102818.56;;;13.55;79.19
71974;BME280;59840;52.122;5.404;2022-07-10T03:17:50;102823.44;;;13.58;79.03
71974;BME280;59840;52.122;5.404;2022-07-10T03:20:16;102824.84;;;13.61;78.98
71974;BME280;59840;52.122;5.404;2022-07-10T03:22:43;102824.41;;;13.64;78.56
71974;BME280;59840;52.122;5.404;2022-07-10T03:25:09;102804.00;;;13.64;78.60
71974;BME280;59840;52.122;5.404;2022-07-10T03:27:36;102809.09;;;13.66;78.99
71974;BME280;59840;52.122;5.404;2022-07-10T03:30:03;102814.19;;;13.67;78.59
71974;BME280;59840;52.122;5.404;2022-07-10T03:32:30;102811.31;;;13.69;78.94
71974;BME280;59840;52.122;5.404;2022-07-10T03:34:56;102808.44;;;13.70;78.64
71974;BME280;59840;52.122;5.404;2022-07-10T03:37:23;102809.66;;;13.74;78.92
71974;BME280;59840;52.122;5.404;2022-07-10T03:39:49;102805.97;;;13.75;78.20
71974;BME280;59840;52.122;5.404;2022-07-10T03:42:16;102809.81;;;13.80;78.06
71974;BME280;59840;52.122;5.404;2022-07-10T03:44:42;102800.59;;;13.82;78.11
71974;BME280;59840;52.122;5.404;2022-07-10T03:47:09;102807.53;;;13.83;77.78
71974;BME280;59840;52.122;5.404;2022-07-10T03:49:36;102811.34;;;13.87;78.02
71974;BME280;59840;52.122;5.404;2022-07-10T03:52:02;102807.44;;;13.90;77.79
71974;BME280;59840;52.122;5.404;2022-07-10T03:54:29;102809.69;;;13.93;78.47
71974;BME280;59840;52.122;5.404;2022-07-10T03:56:57;102809.47;;;13.94;77.30
71974;BME280;59840;52.122;5.404;2022-07-10T03:59:42;102802.91;;;13.97;77.47
71974;BME280;59840;52.122;5.404;2022-07-10T04:02:09;102790.44;;;13.97;77.59
71974;BME280;59840;52.122;5.404;2022-07-10T04:04:36;102786.75;;;13.98;77.87
71974;BME280;59840;52.122;5.404;2022-07-10T04:07:03;102787.34;;;14.00;77.70
71974;BME280;59840;52.122;5.404;2022-07-10T04:09:30;102797.75;;;14.02;77.35
71974;BME280;59840;52.122;5.404;2022-07-10T04:11:57;102793.84;;;14.04;77.58
71974;BME280;59840;52.122;5.404;2022-07-10T04:14:23;102798.50;;;14.09;77.27
71974;BME280;59840;52.122;5.404;2022-07-10T04:16:50;102788.47;;;14.11;77.16
71974;BME280;59840;52.122;5.404;2022-07-10T04:19:16;102791.72;;;14.13;77.25
71974;BME280;59840;52.122;5.404;2022-07-10T04:21:43;102801.09;;;14.16;77.74
71974;BME280;59840;52.122;5.404;2022-07-10T04:24:09;102793.94;;;14.16;76.65
71974;BME280;59840;52.122;5.404;2022-07-10T04:26:36;102789.44;;;14.17;76.86
71974;BME280;59840;52.122;5.404;2022-07-10T04:29:02;102795.34;;;14.19;76.95
71974;BME280;59840;52.122;5.404;2022-07-10T04:31:29;102781.47;;;14.17;76.68
71974;BME280;59840;52.122;5.404;2022-07-10T04:33:55;102785.59;;;14.13;77.18
71974;BME280;59840;52.122;5.404;2022-07-10T04:36:23;102791.13;;;14.11;76.73
71974;BME280;59840;52.122;5.404;2022-07-10T04:38:50;102792.97;;;14.11;77.09
71974;BME280;59840;52.122;5.404;2022-07-10T04:41:17;102786.41;;;14.13;77.48
71974;BME280;59840;52.122;5.404;2022-07-10T04:43:43;102790.91;;;14.13;77.26
71974;BME280;59840;52.122;5.404;2022-07-10T04:46:10;102791.94;;;14.12;77.38
71974;BME280;59840;52.122;5.404;2022-07-10T04:48:36;102784.19;;;14.10;77.41
71974;BME280;59840;52.122;5.404;2022-07-10T04:51:03;102785.59;;;14.13;77.58
71974;BME280;59840;52.122;5.404;2022-07-10T04:53:30;102783.09;;;14.18;77.57
71974;BME280;59840;52.122;5.404;2022-07-10T04:55:56;102792.47;;;14.20;77.67
71974;BME280;59840;52.122;5.404;2022-07-10T04:58:23;102791.19;;;14.23;77.95
71974;BME280;59840;52.122;5.404;2022-07-10T05:00:49;102793.19;;;14.27;77.59
71974;BME280;59840;52.122;5.404;2022-07-10T05:03:16;102799.09;;;14.29;77.92
71974;BME280;59840;52.122;5.404;2022-07-10T05:05:42;102799.25;;;14.34;77.84
71974;BME280;59840;52.122;5.404;2022-07-10T05:08:09;102793.06;;;14.40;78.26
71974;BME280;59840;52.122;5.404;2022-07-10T05:10:36;102799.94;;;14.48;78.11
71974;BME280;59840;52.122;5.404;2022-07-10T05:13:02;102801.84;;;14.59;78.20
71974;BME280;59840;52.122;5.404;2022-07-10T05:15:29;102800.44;;;14.75;77.12
71974;BME280;59840;52.122;5.404;2022-07-10T05:17:56;102792.59;;;14.80;77.36
71974;BME280;59840;52.122;5.404;2022-07-10T05:20:22;102803.47;;;14.79;77.41
71974;BME280;59840;52.122;5.404;2022-07-10T05:22:49;102800.81;;;14.79;77.42
71974;BME280;59840;52.122;5.404;2022-07-10T05:25:15;102809.13;;;14.82;77.74
71974;BME280;59840;52.122;5.404;2022-07-10T05:27:42;102809.50;;;14.86;77.81
71974;BME280;59840;52.122;5.404;2022-07-10T05:30:09;102800.84;;;14.90;77.84
71974;BME280;59840;52.122;5.404;2022-07-10T05:32:42;102800.59;;;14.92;77.54
71974;BME280;59840;52.122;5.404;2022-07-10T05:35:10;102804.31;;;14.91;77.33
71974;BME280;59840;52.122;5.404;2022-07-10T05:37:36;102810.31;;;14.86;77.36
71974;BME280;59840;52.122;5.404;2022-07-10T05:40:03;102808.03;;;14.90;77.25
71974;BME280;59840;52.122;5.404;2022-07-10T05:42:30;102806.97;;;14.91;77.72
71974;BME280;59840;52.122;5.404;2022-07-10T05:44:56;102800.59;;;14.92;77.33
71974;BME280;59840;52.122;5.404;2022-07-10T05:47:23;102792.63;;;14.92;77.82
71974;BME280;59840;52.122;5.404;2022-07-10T05:49:49;102800.97;;;14.95;77.48
71974;BME280;59840;52.122;5.404;2022-07-10T05:52:16;102800.75;;;14.97;77.63
71974;BME280;59840;52.122;5.404;2022-07-10T05:54:42;102796.84;;;14.99;77.35
71974;BME280;59840;52.122;5.404;2022-07-10T05:57:09;102798.22;;;15.02;77.83
71974;BME280;59840;52.122;5.404;2022-07-10T05:59:35;102796.28;;;15.09;77.53
71974;BME280;59840;52.122;5.404;2022-07-10T06:02:02;102800.13;;;15.13;77.35
71974;BME280;59840;52.122;5.404;2022-07-10T06:04:29;102801.88;;;15.19;77.45
71974;BME280;59840;52.122;5.404;2022-07-10T06:06:55;102799.34;;;15.24;77.00
71974;BME280;59840;52.122;5.404;2022-07-10T06:09:22;102807.06;;;15.26;77.12
71974;BME280;59840;52.122;5.404;2022-07-10T06:11:48;102799.22;;;15.31;76.29
71974;BME280;59840;52.122;5.404;2022-07-10T06:14:15;102793.94;;;15.42;76.58
71974;BME280;59840;52.122;5.404;2022-07-10T06:16:42;102798.50;;;15.54;76.77
71974;BME280;59840;52.122;5.404;2022-07-10T06:19:08;102802.44;;;15.63;76.12
71974;BME280;59840;52.122;5.404;2022-07-10T06:21:35;102802.34;;;15.69;75.55
71974;BME280;59840;52.122;5.404;2022-07-10T06:24:02;102805.13;;;15.74;75.21
71974;BME280;59840;52.122;5.404;2022-07-10T06:26:28;102806.97;;;15.74;76.26
71974;BME280;59840;52.122;5.404;2022-07-10T06:28:55;102806.50;;;15.77;75.80
71974;BME280;59840;52.122;5.404;2022-07-10T06:31:21;102808.72;;;15.80;76.37
71974;BME280;59840;52.122;5.404;2022-07-10T06:33:48;102813.81;;;15.82;75.29
71974;BME280;59840;52.122;5.404;2022-07-10T06:36:14;102807.69;;;15.81;75.58
71974;BME280;59840;52.122;5.404;2022-07-10T06:38:41;102814.63;;;15.82;74.80
71974;BME280;59840;52.122;5.404;2022-07-10T06:41:09;102803.50;;;15.73;75.14
71974;BME280;59840;52.122;5.404;2022-07-10T06:43:35;102810.69;;;15.73;75.21
71974;BME280;59840;52.122;5.404;2022-07-10T06:46:02;102812.53;;;15.72;76.23
71974;BME280;59840;52.122;5.404;2022-07-10T06:48:29;102814.16;;;15.73;75.00
71974;BME280;59840;52.122;5.404;2022-07-10T06:50:55;102808.81;;;15.73;75.26
71974;BME280;59840;52.122;5.404;2022-07-10T06:53:22;102813.00;;;15.81;75.12
71974;BME280;59840;52.122;5.404;2022-07-10T06:55:53;102807.81;;;15.86;74.85
71974;BME280;59840;52.122;5.404;2022-07-10T06:58:20;102804.31;;;15.86;75.26
71974;BME280;59840;52.122;5.404;2022-07-10T07:00:47;102810.59;;;15.91;74.90
71974;BME280;59840;52.122;5.404;2022-07-10T07:03:13;102806.38;;;15.95;74.98
71974;BME280;59840;52.122;5.404;2022-07-10T07:05:40;102806.38;;;15.95;74.43
71974;BME280;59840;52.122;5.404;2022-07-10T07:08:06;102809.63;;;15.97;74.35
71974;BME280;59840;52.122;5.404;2022-07-10T07:10:33;102802.22;;;15.99;74.21
71974;BME280;59840;52.122;5.404;2022-07-10T07:12:59;102810.22;;;15.99;74.43
71974;BME280;59840;52.122;5.404;2022-07-10T07:15:26;102802.91;;;15.95;73.82
71974;BME280;59840;52.122;5.404;2022-07-10T07:17:52;102807.53;;;15.99;74.57
71974;BME280;59840;52.122;5.404;2022-07-10T07:20:35;102802.09;;;16.06;75.08
71974;BME280;59840;52.122;5.404;2022-07-10T07:23:20;102816.34;;;16.12;74.91
71974;BME280;59840;52.122;5.404;2022-07-10T07:25:46;102812.41;;;16.14;74.33
71974;BME280;59840;52.122;5.404;2022-07-10T07:28:16;102810.56;;;16.15;74.13
71974;BME280;59840;52.122;5.404;2022-07-10T07:30:44;102808.94;;;16.25;74.28
71974;BME280;59840;52.122;5.404;2022-07-10T07:33:11;102810.03;;;16.41;73.92
71974;BME280;59840;52.122;5.404;2022-07-10T07:35:38;102804.69;;;16.53;72.62
71974;BME280;59840;52.122;5.404;2022-07-10T07:38:05;102800.88;;;16.60;72.38
71974;BME280;59840;52.122;5.404;2022-07-10T07:40:35;102805.25;;;16.66;71.44
71974;BME280;59840;52.122;5.404;2022-07-10T07:43:03;102806.44;;;16.59;71.32
71974;BME280;59840;52.122;5.404;2022-07-10T07:45:30;102811.28;;;16.62;71.49
71974;BME280;59840;52.122;5.404;2022-07-10T07:47:58;102805.25;;;16.66;71.04
71974;BME280;59840;52.122;5.404;2022-07-10T07:50:32;102811.84;;;16.75;70.93
71974;BME280;59840;52.122;5.404;2022-07-10T07:53:01;102805.47;;;16.77;70.70
71974;BME280;59840;52.122;5.404;2022-07-10T07:55:29;102807.19;;;16.83;71.07
71974;BME280;59840;52.122;5.404;2022-07-10T07:57:57;102806.97;;;16.72;70.67
71974;BME280;59840;52.122;5.404;2022-07-10T08:00:25;102822.41;;;16.70;71.11
71974;BME280;59840;52.122;5.404;2022-07-10T08:02:54;102818.72;;;16.60;71.58
71974;BME280;59840;52.122;5.404;2022-07-10T08:05:21;102826.13;;;16.58;71.76
71974;BME280;59840;52.122;5.404;2022-07-10T08:07:52;102819.19;;;16.57;72.22
71974;BME280;59840;52.122;5.404;2022-07-10T08:10:21;102813.38;;;16.60;71.77
71974;BME280;59840;52.122;5.404;2022-07-10T08:12:49;102820.09;;;16.62;71.87
71974;BME280;59840;52.122;5.404;2022-07-10T08:15:18;102819.72;;;16.70;71.64
71974;BME280;59840;52.122;5.404;2022-07-10T08:17:49;102812.91;;;16.63;71.25
71974;BME280;59840;52.122;5.404;2022-07-10T08:20:16;102811.28;;;16.62;71.87
71974;BME280;59840;52.122;5.404;2022-07-10T08:22:44;102807.66;;;16.80;72.04
71974;BME280;59840;52.122;5.404;2022-07-10T08:25:11;102817.41;;;17.02;72.61
71974;BME280;59840;52.122;5.404;2022-07-10T08:27:38;102805.78;;;17.08;70.79
71974;BME280;59840;52.122;5.404;2022-07-10T08:30:06;102807.63;;;17.08;70.03
71974;BME280;59840;52.122;5.404;2022-07-10T08:32:33;102809.25;;;17.09;70.86
71974;BME280;59840;52.122;5.404;2022-07-10T08:34:59;102812.25;;;17.13;71.71
71974;BME280;59840;52.122;5.404;2022-07-10T08:37:26;102805.53;;;17.10;69.43
71974;BME280;59840;52.122;5.404;2022-07-10T08:39:52;102804.00;;;17.14;71.00
71974;BME280;59840;52.122;5.404;2022-07-10T08:42:20;102809.63;;;17.29;70.60
71974;BME280;59840;52.122;5.404;2022-07-10T08:44:47;102808.41;;;17.37;69.11
71974;BME280;59840;52.122;5.404;2022-07-10T08:47:14;102809.78;;;17.39;69.24
71974;BME280;59840;52.122;5.404;2022-07-10T08:49:46;102808.50;;;17.59;69.09
71974;BME280;59840;52.122;5.404;2022-07-10T08:54:54;102805.19;;;17.85;67.51
71974;BME280;59840;52.122;5.404;2022-07-10T08:57:23;102802.19;;;17.98;67.45
71974;BME280;59840;52.122;5.404;2022-07-10T08:59:50;102808.22;;;18.11;67.78
71974;BME280;59840;52.122;5.404;2022-07-10T09:02:17;102799.63;;;18.08;67.09
71974;BME280;59840;52.122;5.404;2022-07-10T09:04:43;102791.75;;;18.19;66.84
71974;BME280;59840;52.122;5.404;2022-07-10T09:07:10;102798.09;;;18.13;64.79
71974;BME280;59840;52.122;5.404;2022-07-10T09:09:57;102799.22;;;18.17;66.24
71974;BME280;59840;52.122;5.404;2022-07-10T09:12:24;102795.56;;;18.23;66.29
71974;BME280;59840;52.122;5.404;2022-07-10T09:14:51;102791.91;;;18.29;65.97
71974;BME280;59840;52.122;5.404;2022-07-10T09:17:18;102795.00;;;18.42;66.05
71974;BME280;59840;52.122;5.404;2022-07-10T09:19:45;102789.28;;;18.56;65.88
71974;BME280;59840;52.122;5.404;2022-07-10T09:22:12;102789.59;;;18.59;67.73
71974;BME280;59840;52.122;5.404;2022-07-10T09:24:44;102796.91;;;18.47;66.14
71974;BME280;59840;52.122;5.404;2022-07-10T09:27:12;102796.84;;;18.42;65.17
71974;BME280;59840;52.122;5.404;2022-07-10T09:29:53;102789.97;;;18.46;65.54
71974;BME280;59840;52.122;5.404;2022-07-10T09:32:24;102785.72;;;18.50;65.30
71974;BME280;59840;52.122;5.404;2022-07-10T09:34:51;102787.34;;;18.51;65.48
71974;BME280;59840;52.122;5.404;2022-07-10T09:37:41;102788.53;;;18.38;65.73
71974;BME280;59840;52.122;5.404;2022-07-10T09:40:09;102787.06;;;18.26;65.55
71974;BME280;59840;52.122;5.404;2022-07-10T09:45:12;102781.56;;;18.16;65.83
71974;BME280;59840;52.122;5.404;2022-07-10T09:47:57;102773.28;;;18.39;65.52
71974;BME280;59840;52.122;5.404;2022-07-10T09:50:29;102769.25;;;18.58;65.75
71974;BME280;59840;52.122;5.404;2022-07-10T09:52:58;102755.00;;;18.74;65.55
71974;BME280;59840;52.122;5.404;2022-07-10T09:55:27;102764.19;;;18.84;65.10
71974;BME280;59840;52.122;5.404;2022-07-10T09:58:01;102766.47;;;18.70;64.78
71974;BME280;59840;52.122;5.404;2022-07-10T10:00:29;102761.41;;;18.73;65.06
71974;BME280;59840;52.122;5.404;2022-07-10T10:03:01;102762.44;;;18.67;65.33
71974;BME280;59840;52.122;5.404;2022-07-10T10:05:53;102768.88;;;18.71;65.63
71974;BME280;59840;52.122;5.404;2022-07-10T10:08:57;102757.44;;;19.03;65.25
71974;BME280;59840;52.122;5.404;2022-07-10T10:11:27;102751.13;;;19.19;65.14
71974;BME280;59840;52.122;5.404;2022-07-10T10:13:53;102767.09;;;19.09;64.62
71974;BME280;59840;52.122;5.404;2022-07-10T10:16:22;102767.06;;;19.04;64.48
71974;BME280;59840;52.122;5.404;2022-07-10T10:18:50;102774.69;;;18.90;64.30
71974;BME280;59840;52.122;5.404;2022-07-10T10:21:36;102770.84;;;18.81;64.49
71974;BME280;59840;52.122;5.404;2022-07-10T10:24:03;102768.84;;;18.66;65.02
71974;BME280;59840;52.122;5.404;2022-07-10T10:26:29;102778.25;;;18.74;64.10
71974;BME280;59840;52.122;5.404;2022-07-10T10:28:57;102772.66;;;18.75;64.98
71974;BME280;59840;52.122;5.404;2022-07-10T10:31:26;102771.00;;;18.69;65.42
71974;BME280;59840;52.122;5.404;2022-07-10T10:33:55;102771.28;;;18.73;64.61
71974;BME280;59840;52.122;5.404;2022-07-10T10:41:52;102760.69;;;19.10;65.49
71974;BME280;59840;52.122;5.404;2022-07-10T10:44:26;102757.69;;;19.06;64.18
71974;BME280;59840;52.122;5.404;2022-07-10T10:47:02;102747.59;;;19.14;64.02
71974;BME280;59840;52.122;5.404;2022-07-10T10:49:54;102756.06;;;19.32;64.41
71974;BME280;59840;52.122;5.404;2022-07-10T10:52:23;102756.13;;;19.42;65.19
71974;BME280;59840;52.122;5.404;2022-07-10T10:57:49;102761.06;;;18.92;63.91
71974;BME280;59840;52.122;5.404;2022-07-10T11:00:43;102758.22;;;18.77;64.68
71974;BME280;59840;52.122;5.404;2022-07-10T11:03:16;102757.59;;;18.64;64.86
71974;BME280;59840;52.122;5.404;2022-07-10T11:05:44;102752.78;;;18.66;65.41
71974;BME280;59840;52.122;5.404;2022-07-10T11:08:12;102762.28;;;18.57;65.54
71974;BME280;59840;52.122;5.404;2022-07-10T11:10:42;102757.75;;;18.58;65.94
71974;BME280;59840;52.122;5.404;2022-07-10T11:13:15;102756.22;;;18.62;65.31
71974;BME280;59840;52.122;5.404;2022-07-10T11:15:43;102754.44;;;18.72;65.89
71974;BME280;59840;52.122;5.404;2022-07-10T11:18:15;102748.94;;;18.84;65.72
71974;BME280;59840;52.122;5.404;2022-07-10T11:20:44;102754.09;;;18.91;66.04
71974;BME280;59840;52.122;5.404;2022-07-10T11:26:10;102756.09;;;19.37;65.64
71974;BME280;59840;52.122;5.404;2022-07-10T11:28:49;102761.03;;;19.51;65.32
71974;BME280;59840;52.122;5.404;2022-07-10T11:31:17;102756.91;;;19.38;63.53
71974;BME280;59840;52.122;5.404;2022-07-10T11:33:46;102752.31;;;19.33;63.56
71974;BME280;59840;52.122;5.404;2022-07-10T11:36:21;102758.78;;;19.37;62.11
71974;BME280;59840;52.122;5.404;2022-07-10T11:39:03;102755.03;;;19.38;62.35
71974;BME280;59840;52.122;5.404;2022-07-10T11:41:31;102748.88;;;19.38;62.23
71974;BME280;59840;52.122;5.404;2022-07-10T11:44:03;102750.16;;;19.30;61.78
71974;BME280;59840;52.122;5.404;2022-07-10T11:46:32;102765.72;;;19.33;62.99
71974;BME280;59840;52.122;5.404;2022-07-10T11:49:04;102745.28;;;19.22;61.85
71974;BME280;59840;52.122;5.404;2022-07-10T11:51:35;102747.81;;;19.07;62.18
71974;BME280;59840;52.122;5.404;2022-07-10T11:54:04;102750.22;;;19.03;62.12
71974;BME280;59840;52.122;5.404;2022-07-10T11:56:39;102741.41;;;19.08;63.35
71974;BME280;59840;52.122;5.404;2022-07-10T11:59:09;102746.88;;;19.23;62.33
71974;BME280;59840;52.122;5.404;2022-07-10T12:01:45;102729.34;;;19.37;62.88
71974;BME280;59840;52.122;5.404;2022-07-10T12:04:13;102734.63;;;19.64;61.80
71974;BME280;59840;52.122;5.404;2022-07-10T12:06:42;102732.63;;;19.92;60.80
71974;BME280;59840;52.122;5.404;2022-07-10T12:09:14;102724.16;;;20.20;59.15
71974;BME280;59840;52.122;5.404;2022-07-10T12:11:42;102721.59;;;20.40;60.14
71974;BME280;59840;52.122;5.404;2022-07-10T12:14:10;102726.69;;;20.52;58.83
71974;BME280;59840;52.122;5.404;2022-07-10T12:16:38;102732.22;;;20.25;57.25
71974;BME280;59840;52.122;5.404;2022-07-10T12:19:06;102733.47;;;20.02;58.12
71974;BME280;59840;52.122;5.404;2022-07-10T12:21:33;102737.50;;;20.05;58.50
71974;BME280;59840;52.122;5.404;2022-07-10T12:24:00;102719.78;;;19.94;56.76
71974;BME280;59840;52.122;5.404;2022-07-10T12:26:36;102732.84;;;19.85;58.77
71974;BME280;59840;52.122;5.404;2022-07-10T12:29:04;102729.94;;;19.92;57.14
71974;BME280;59840;52.122;5.404;2022-07-10T12:31:32;102740.88;;;19.85;57.83
71974;BME280;59840;52.122;5.404;2022-07-10T12:34:01;102741.19;;;19.89;58.09
71974;BME280;59840;52.122;5.404;2022-07-10T12:36:49;102730.28;;;20.05;57.34
71974;BME280;59840;52.122;5.404;2022-07-10T12:39:21;102728.94;;;20.13;58.14
71974;BME280;59840;52.122;5.404;2022-07-10T12:44:43;102737.63;;;20.35;56.03
71974;BME280;59840;52.122;5.404;2022-07-10T12:47:18;102734.25;;;20.70;55.79
71974;BME280;59840;52.122;5.404;2022-07-10T12:50:05;102724.59;;;20.95;54.85
71974;BME280;59840;52.122;5.404;2022-07-10T12:52:35;102726.72;;;21.18;55.99
71974;BME280;59840;52.122;5.404;2022-07-10T12:57:59;102723.78;;;20.89;54.19
71974;BME280;59840;52.122;5.404;2022-07-10T13:00:28;102715.72;;;20.69;54.94
71974;BME280;59840;52.122;5.404;2022-07-10T13:03:09;102720.56;;;20.77;54.69
71974;BME280;59840;52.122;5.404;2022-07-10T13:05:41;102715.47;;;20.65;56.45
71974;BME280;59840;52.122;5.404;2022-07-10T13:08:15;102724.06;;;20.78;56.40
71974;BME280;59840;52.122;5.404;2022-07-10T13:10:48;102712.25;;;20.89;54.64
71974;BME280;59840;52.122;5.404;2022-07-10T13:13:15;102712.25;;;21.24;55.71
71974;BME280;59840;52.122;5.404;2022-07-10T13:15:45;102711.34;;;21.74;54.39
71974;BME280;59840;52.122;5.404;2022-07-10T13:18:23;102712.69;;;21.77;53.20
71974;BME280;59840;52.122;5.404;2022-07-10T13:20:52;102712.97;;;21.70;52.71